Terminal Aerodrome Forecast
Issued by NWS Springfield, MO

Home | Current Version | Previous Version | Text Only | Print | Product List | Glossary On
Versions: 1 2 3 4 5 6 7 8 9 10 11 12 13 14 15 16 17 18 19 20 21 22 23 24
000
FTUS43 KSGF 031100
TAFSGF
TAF
KSGF 031133Z 0312/0412 VRB03KT 5SM BR OVC005
     FM031400 03007KT 6SM -SHRA BR VCTS BKN007CB BKN020
      TEMPO 0314/0317 3SM -TSRA BR OVC010CB
     FM031800 36008KT P6SM BKN025 OVC050
     FM032200 01008KT P6SM BKN050
     FM040000 VRB03KT P6SM BKN250=

USA.gov is the U.S. government's official web portal to all federal, state and local government web resources and services.